createdAt,value
2019-03-02T00:00:22.522Z,15.97
2019-03-02T00:02:50.597Z,16.93
2019-03-02T00:05:20.918Z,16.60
2019-03-02T00:07:49.768Z,14.40
2019-03-02T00:10:17.802Z,15.27
2019-03-02T00:12:45.900Z,16.07
2019-03-02T00:15:14.031Z,16.47
2019-03-02T00:17:42.091Z,15.60
2019-03-02T00:20:10.191Z,16.33
2019-03-02T00:22:39.424Z,16.53
2019-03-02T00:25:08.952Z,17.33
2019-03-02T00:27:37.034Z,16.10
2019-03-02T00:30:06.891Z,16.70
2019-03-02T00:32:34.987Z,17.60
2019-03-02T00:35:03.878Z,17.57
2019-03-02T00:37:33.695Z,16.70
2019-03-02T00:40:01.996Z,17.17
2019-03-02T00:42:30.081Z,16.20
2019-03-02T00:44:58.178Z,17.50
2019-03-02T00:47:26.270Z,17.00
2019-03-02T00:49:57.255Z,16.07
2019-03-02T00:52:24.389Z,17.43
2019-03-02T00:54:58.162Z,16.03
2019-03-02T00:57:22.323Z,17.07
2019-03-02T00:59:50.496Z,18.30
2019-03-02T01:02:18.594Z,17.37
2019-03-02T01:04:46.694Z,17.53
2019-03-02T01:07:14.778Z,17.47
2019-03-02T01:09:43.619Z,17.00
2019-03-02T01:12:12.742Z,17.67
2019-03-02T01:14:40.833Z,19.07
2019-03-02T01:17:08.902Z,18.47
2019-03-02T01:19:36.998Z,17.27
2019-03-02T01:22:05.060Z,18.57
2019-03-02T01:24:35.616Z,17.77
2019-03-02T01:27:02.948Z,18.00
2019-03-02T01:29:31.128Z,18.10
2019-03-02T01:31:59.198Z,18.07
2019-03-02T01:34:27.296Z,17.77
2019-03-02T01:36:55.395Z,17.83
2019-03-02T01:39:25.855Z,18.90
2019-03-02T01:41:53.943Z,17.73
2019-03-02T01:44:22.157Z,17.47
2019-03-02T01:46:50.253Z,17.13
2019-03-02T01:49:18.340Z,15.90
2019-03-02T01:51:46.430Z,16.67
2019-03-02T01:54:17.826Z,16.63
2019-03-02T01:56:44.319Z,16.40
2019-03-02T01:59:12.399Z,18.57
2019-03-02T02:01:40.530Z,16.97
2019-03-02T02:04:08.912Z,16.43
2019-03-02T02:06:39.856Z,16.63
2019-03-02T02:09:07.296Z,16.53
2019-03-02T02:11:35.383Z,16.70
2019-03-02T02:14:03.543Z,18.30
2019-03-02T02:16:31.648Z,18.13
2019-03-02T02:19:02.436Z,19.97
2019-03-02T02:21:29.548Z,20.50
2019-03-02T02:23:57.634Z,20.83
2019-03-02T02:26:25.725Z,19.47
2019-03-02T02:28:53.828Z,21.57
2019-03-02T02:31:21.909Z,18.93
2019-03-02T02:33:50.012Z,21.00
2019-03-02T02:36:18.801Z,20.30
2019-03-02T02:38:53.853Z,22.77
2019-03-02T02:41:23.111Z,22.57
2019-03-02T02:43:47.585Z,22.93
2019-03-02T02:46:15.673Z,22.93
2019-03-02T02:48:43.770Z,22.50
2019-03-02T02:51:12.514Z,23.03
2019-03-02T02:53:45.152Z,24.03
2019-03-02T02:56:14.354Z,24.10
2019-03-02T02:58:40.443Z,25.23
2019-03-02T03:01:08.515Z,25.33
2019-03-02T03:03:36.605Z,24.47
2019-03-02T03:06:04.721Z,24.23
2019-03-02T03:08:37.003Z,24.97
2019-03-02T03:11:06.707Z,25.87
2019-03-02T03:13:35.872Z,24.87
2019-03-02T03:16:05.951Z,25.17
2019-03-02T03:18:34.041Z,26.67
2019-03-02T03:21:02.107Z,25.13
2019-03-02T03:23:30.207Z,26.03
2019-03-02T03:25:58.726Z,26.03
2019-03-02T03:28:30.763Z,25.17
2019-03-02T03:30:56.836Z,25.70
2019-03-02T03:33:24.941Z,25.47
2019-03-02T03:35:56.067Z,26.77
2019-03-02T03:38:24.810Z,25.93
2019-03-02T03:40:52.661Z,26.73
2019-03-02T03:43:20.825Z,27.77
2019-03-02T03:45:48.914Z,25.63
2019-03-02T03:48:17.780Z,26.37
2019-03-02T03:50:47.959Z,27.60
2019-03-02T03:53:16.620Z,27.93
2019-03-02T03:55:44.727Z,26.97
2019-03-02T03:58:13.105Z,27.37
2019-03-02T04:00:41.303Z,27.13
2019-03-02T04:03:13.802Z,27.30
2019-03-02T04:05:42.064Z,27.10
2019-03-02T04:08:09.029Z,26.70
2019-03-02T04:10:37.140Z,28.03
2019-03-02T04:13:06.568Z,27.63
2019-03-02T04:15:40.714Z,27.77
2019-03-02T04:18:06.355Z,27.73
2019-03-02T04:20:36.001Z,28.00
2019-03-02T04:23:05.867Z,27.53
2019-03-02T04:25:33.964Z,28.60
2019-03-02T04:28:02.051Z,28.73
2019-03-02T04:30:31.398Z,27.97
2019-03-02T04:33:01.885Z,28.10
2019-03-02T04:35:29.920Z,27.90
2019-03-02T04:38:00.784Z,26.73
2019-03-02T04:40:29.465Z,27.97
2019-03-02T04:42:57.544Z,27.87
2019-03-02T04:48:39.286Z,27.67
2019-03-02T04:51:05.973Z,27.80
2019-03-02T04:53:34.114Z,28.23
2019-03-02T04:56:02.345Z,29.37
2019-03-02T04:58:30.543Z,28.30
2019-03-02T05:00:58.713Z,28.30
2019-03-02T05:03:26.855Z,28.17
2019-03-02T05:05:55.087Z,27.90
2019-03-02T05:08:23.320Z,27.93
2019-03-02T05:10:51.501Z,28.10
2019-03-02T05:13:19.719Z,27.40
2019-03-02T05:15:48.936Z,27.63
2019-03-02T05:18:18.125Z,27.47
2019-03-02T05:20:47.176Z,26.60
2019-03-02T05:23:15.316Z,26.90
2019-03-02T05:25:43.591Z,25.30
2019-03-02T05:28:11.801Z,28.57
2019-03-02T05:30:40.031Z,26.53
2019-03-02T05:33:08.185Z,25.97
2019-03-02T05:35:36.383Z,26.17
2019-03-02T05:38:04.534Z,26.23
2019-03-02T05:40:32.680Z,26.23
2019-03-02T05:43:00.840Z,28.67
2019-03-02T05:45:29.049Z,28.10
2019-03-02T05:47:57.286Z,27.67
2019-03-02T05:50:26.543Z,27.37
2019-03-02T05:52:55.404Z,26.87
2019-03-02T05:55:23.621Z,28.73
2019-03-02T05:57:51.791Z,26.57
2019-03-02T06:00:21.572Z,27.60
2019-03-02T06:02:49.820Z,28.43
2019-03-02T06:05:18.031Z,29.17
2019-03-02T06:07:46.261Z,28.87
2019-03-02T06:10:14.875Z,29.53
2019-03-02T06:12:43.222Z,30.17
2019-03-02T06:15:12.974Z,29.33
2019-03-02T06:17:41.218Z,32.17
2019-03-02T06:20:10.478Z,30.30
2019-03-02T06:22:38.700Z,31.77
2019-03-02T06:25:19.579Z,30.97
2019-03-02T06:27:46.894Z,31.67
2019-03-02T06:30:23.992Z,31.87
2019-03-02T06:32:52.287Z,32.03
2019-03-02T06:35:20.423Z,32.97
2019-03-02T06:37:48.651Z,32.33
2019-03-02T06:40:19.745Z,34.40
2019-03-02T06:42:46.857Z,32.50
2019-03-02T06:45:16.000Z,31.50
2019-03-02T06:47:44.234Z,34.17
2019-03-02T06:50:13.908Z,32.70
2019-03-02T06:52:42.063Z,33.50
2019-03-02T06:55:11.073Z,35.43
2019-03-02T06:57:39.227Z,34.80
2019-03-02T07:00:14.929Z,35.57
2019-03-02T07:02:43.226Z,34.30
2019-03-02T07:05:11.500Z,33.23
2019-03-02T07:07:39.701Z,35.93
2019-03-02T07:10:09.788Z,33.93
2019-03-02T07:12:37.916Z,35.73
2019-03-02T07:15:08.276Z,35.70
2019-03-02T07:17:45.136Z,35.77
2019-03-02T07:20:14.982Z,35.43
2019-03-02T07:22:43.104Z,35.20
2019-03-02T07:25:11.258Z,34.60
2019-03-02T07:27:39.459Z,33.57
2019-03-02T07:30:09.167Z,34.63
2019-03-02T07:32:37.402Z,35.73
2019-03-02T07:35:07.063Z,34.73
2019-03-02T07:37:35.429Z,32.70
2019-03-02T07:40:05.662Z,33.90
2019-03-02T07:42:34.869Z,32.43
2019-03-02T07:45:04.602Z,34.03
2019-03-02T07:47:32.738Z,33.37
2019-03-02T07:50:00.935Z,33.10
2019-03-02T07:52:29.072Z,33.93
2019-03-02T07:54:58.595Z,32.20
2019-03-02T07:57:26.880Z,33.50
2019-03-02T07:59:55.021Z,32.93
2019-03-02T08:02:25.719Z,32.80
2019-03-02T08:04:53.061Z,32.20
2019-03-02T08:07:21.240Z,32.00
2019-03-02T08:09:49.573Z,32.83
2019-03-02T08:12:20.832Z,32.27
2019-03-02T08:14:48.067Z,32.47
2019-03-02T08:17:17.130Z,31.63
2019-03-02T08:19:48.563Z,32.73
2019-03-02T08:22:15.147Z,33.50
2019-03-02T08:24:43.745Z,32.83
2019-03-02T08:27:12.914Z,30.77
2019-03-02T08:29:41.101Z,32.30
2019-03-02T08:32:10.364Z,30.97
2019-03-02T08:34:38.651Z,29.03
2019-03-02T08:37:06.839Z,31.87
2019-03-02T08:39:34.967Z,29.20
2019-03-02T08:42:03.206Z,29.03
2019-03-02T08:44:31.394Z,27.50
2019-03-02T08:46:59.551Z,26.67
2019-03-02T08:49:27.754Z,27.77
2019-03-02T08:51:55.923Z,26.50
2019-03-02T08:54:24.057Z,28.43
2019-03-02T08:56:52.286Z,25.67
2019-03-02T08:59:20.514Z,25.97
2019-03-02T09:01:51.273Z,26.27
2019-03-02T09:04:18.606Z,26.33
2019-03-02T09:06:46.901Z,25.43
2019-03-02T09:09:15.171Z,25.77
2019-03-02T09:11:44.514Z,25.63
2019-03-02T09:14:13.553Z,26.03
2019-03-02T09:16:42.548Z,25.43
2019-03-02T09:19:10.855Z,24.63
2019-03-02T09:21:39.444Z,25.30
2019-03-02T09:24:09.302Z,26.20
2019-03-02T09:26:37.607Z,25.83
2019-03-02T09:29:05.730Z,25.87
2019-03-02T09:31:38.182Z,24.93
2019-03-02T09:34:05.156Z,25.83
2019-03-02T09:36:33.307Z,26.33
2019-03-02T09:39:01.469Z,24.27
2019-03-02T09:41:29.676Z,26.20
2019-03-02T09:44:00.842Z,25.87
2019-03-02T09:46:28.344Z,25.30
2019-03-02T09:48:56.871Z,26.07
2019-03-02T09:51:26.430Z,25.73
2019-03-02T09:53:54.579Z,25.13
2019-03-02T09:56:22.746Z,24.60
2019-03-02T09:58:50.957Z,24.93
2019-03-02T10:01:19.141Z,23.67
2019-03-02T10:03:47.477Z,23.60
2019-03-02T10:06:16.067Z,22.93
2019-03-02T10:08:45.826Z,22.07
2019-03-02T10:11:14.222Z,22.73
2019-03-02T10:13:42.374Z,21.87
2019-03-02T10:16:11.206Z,22.77
2019-03-02T10:18:39.432Z,22.70
2019-03-02T10:21:07.587Z,21.80
2019-03-02T10:23:38.992Z,20.20
2019-03-02T10:26:07.292Z,20.03
2019-03-02T10:28:35.556Z,19.57
2019-03-02T10:31:06.127Z,20.33
2019-03-02T10:33:33.697Z,21.13
2019-03-02T10:36:01.830Z,18.83
2019-03-02T10:38:31.338Z,20.10
2019-03-02T10:41:04.489Z,19.13
2019-03-02T10:43:32.658Z,19.83
2019-03-02T10:46:00.781Z,18.50
2019-03-02T10:48:28.919Z,19.43
2019-03-02T10:51:02.442Z,19.83
2019-03-02T10:53:29.926Z,18.40
2019-03-02T10:55:58.165Z,16.40
2019-03-02T10:58:26.347Z,17.17
2019-03-02T11:00:54.513Z,16.97
2019-03-02T11:03:22.739Z,17.53
2019-03-02T11:05:52.972Z,16.77
2019-03-02T11:08:33.098Z,16.33
2019-03-02T11:11:17.791Z,15.90
2019-03-02T11:13:51.919Z,15.53
2019-03-02T11:16:21.910Z,15.67
2019-03-02T11:19:11.317Z,15.30
2019-03-02T11:21:42.467Z,14.70
2019-03-02T11:24:15.299Z,15.30
2019-03-02T11:26:54.347Z,14.00
2019-03-02T11:29:36.250Z,13.63
2019-03-02T11:32:22.856Z,13.87
2019-03-02T11:35:10.466Z,12.90
2019-03-02T11:37:39.034Z,12.93
2019-03-02T11:40:25.646Z,13.07
2019-03-02T11:42:52.589Z,10.93
2019-03-02T11:45:22.506Z,10.50
2019-03-02T11:48:13.128Z,10.30
2019-03-02T11:50:52.374Z,10.53
2019-03-02T11:53:24.013Z,10.23
2019-03-02T11:55:56.765Z,9.33
2019-03-02T11:58:36.910Z,10.60
2019-03-02T12:01:23.356Z,9.77
2019-03-02T12:04:02.279Z,9.53
2019-03-02T12:06:32.075Z,9.67
2019-03-02T12:09:07.795Z,9.93
2019-03-02T12:11:46.893Z,9.23
2019-03-02T12:14:15.382Z,9.40
2019-03-02T12:17:04.468Z,9.43
2019-03-02T12:19:33.030Z,8.90
2019-03-02T12:22:17.998Z,8.83
2019-03-02T12:24:50.598Z,7.10
2019-03-02T12:27:22.326Z,7.23
2019-03-02T12:29:52.131Z,6.23
2019-03-02T12:32:21.924Z,7.00
2019-03-02T12:35:01.719Z,7.63
2019-03-02T12:37:43.304Z,7.07
2019-03-02T12:40:13.289Z,6.80
2019-03-02T12:42:58.048Z,7.07
2019-03-02T12:45:33.654Z,6.53
2019-03-02T12:48:11.405Z,6.27
2019-03-02T12:50:41.240Z,5.90
2019-03-02T12:53:30.616Z,5.87
2019-03-02T12:56:03.263Z,6.50
2019-03-02T12:58:55.384Z,6.10
2019-03-02T13:01:25.203Z,6.50
2019-03-02T13:03:57.730Z,5.80
2019-03-02T13:06:37.408Z,6.80
2019-03-02T13:09:08.775Z,6.33
2019-03-02T13:11:47.764Z,6.37
2019-03-02T13:14:28.952Z,6.17
2019-03-02T13:17:02.781Z,6.00
2019-03-02T13:19:31.653Z,7.10
2019-03-02T13:22:04.157Z,6.37
2019-03-02T13:24:57.871Z,6.40
2019-03-02T13:27:27.745Z,5.90
2019-03-02T13:30:00.522Z,6.17
2019-03-02T13:32:47.951Z,6.97
2019-03-02T13:35:24.396Z,6.43
2019-03-02T13:38:05.101Z,5.83
2019-03-02T13:40:37.779Z,5.77
2019-03-02T13:43:13.333Z,5.27
2019-03-02T13:45:43.352Z,5.37
2019-03-02T13:48:13.160Z,5.90
2019-03-02T13:50:53.637Z,5.37
2019-03-02T13:53:24.419Z,5.17
2019-03-02T13:55:54.705Z,5.03
2019-03-02T13:58:40.002Z,5.00
2019-03-02T14:01:29.183Z,5.40
2019-03-02T14:03:59.341Z,4.87
2019-03-02T14:06:51.009Z,4.80
2019-03-02T14:09:31.064Z,4.50
2019-03-02T14:12:15.972Z,4.90
2019-03-02T14:14:46.576Z,4.90
2019-03-02T14:17:16.401Z,5.13
2019-03-02T14:19:49.087Z,4.53
2019-03-02T14:22:37.429Z,5.17
2019-03-02T14:25:19.113Z,4.60
2019-03-02T14:27:50.246Z,4.30
2019-03-02T14:30:26.183Z,4.37
2019-03-02T14:32:56.071Z,4.20
2019-03-02T14:35:28.654Z,4.23
2019-03-02T14:38:01.024Z,4.30
2019-03-02T14:40:51.316Z,4.60
2019-03-02T14:43:36.590Z,3.97
2019-03-02T14:46:24.784Z,4.37
2019-03-02T14:49:00.643Z,4.27
2019-03-02T14:51:30.435Z,4.27
2019-03-02T14:54:12.366Z,4.83
2019-03-02T14:57:00.329Z,4.43
2019-03-02T14:59:42.233Z,4.30
2019-03-02T15:02:24.274Z,4.93
2019-03-02T15:04:56.787Z,4.50
2019-03-02T15:07:32.964Z,4.47
2019-03-02T15:10:03.217Z,4.60
2019-03-02T15:12:42.103Z,4.40
2019-03-02T15:15:16.508Z,4.27
2019-03-02T15:17:50.650Z,4.63
2019-03-02T15:20:36.415Z,4.57
2019-03-02T15:23:06.227Z,3.80
2019-03-02T15:25:36.019Z,3.80
2019-03-02T15:28:05.816Z,4.20
2019-03-02T15:30:44.488Z,4.93
2019-03-02T15:33:14.335Z,4.40
2019-03-02T15:35:49.903Z,4.23
2019-03-02T15:38:25.809Z,5.20
2019-03-02T15:41:11.791Z,4.53
2019-03-02T15:43:59.639Z,4.43
2019-03-02T15:46:25.857Z,4.80
2019-03-02T15:48:55.782Z,4.43
2019-03-02T15:51:37.640Z,4.37
2019-03-02T15:54:10.653Z,4.93
2019-03-02T15:56:40.575Z,4.77
2019-03-02T15:59:10.420Z,5.13
2019-03-02T16:01:48.842Z,3.97
2019-03-02T16:04:18.678Z,5.10
2019-03-02T16:06:48.626Z,4.57
2019-03-02T16:09:21.490Z,4.07
2019-03-02T16:11:51.358Z,5.07
2019-03-02T16:14:24.442Z,4.50
2019-03-02T16:17:09.226Z,3.60
2019-03-02T16:19:47.832Z,3.70
2019-03-02T16:22:17.713Z,4.00
2019-03-02T16:24:50.657Z,4.27
2019-03-02T16:27:20.455Z,4.00
2019-03-02T16:33:00.015Z,3.77
2019-03-02T16:35:29.812Z,3.60
2019-03-02T16:38:16.092Z,3.43
2019-03-02T16:40:54.187Z,4.27
2019-03-02T16:43:27.307Z,3.40
2019-03-02T16:46:06.783Z,3.57
2019-03-02T16:48:39.732Z,3.23
2019-03-02T16:51:21.527Z,3.27
2019-03-02T16:53:53.598Z,3.73
2019-03-02T16:56:39.649Z,3.30
2019-03-02T16:59:15.318Z,3.20
2019-03-02T17:02:03.123Z,2.87
2019-03-02T17:04:35.548Z,3.13
2019-03-02T17:07:07.965Z,2.83
2019-03-02T17:09:37.841Z,3.40
2019-03-02T17:12:12.280Z,3.60
2019-03-02T17:14:45.939Z,3.07
2019-03-02T17:17:30.302Z,3.43
2019-03-02T17:20:01.326Z,3.60
2019-03-02T17:22:32.478Z,3.30
2019-03-02T17:25:05.352Z,3.30
2019-03-02T17:27:35.184Z,4.17
2019-03-02T17:30:06.289Z,3.90
2019-03-02T17:32:38.923Z,3.50
2019-03-02T17:35:09.762Z,3.70
2019-03-02T17:37:56.262Z,3.87
2019-03-02T17:40:31.855Z,3.87
2019-03-02T17:43:03.678Z,3.33
2019-03-02T17:45:44.760Z,3.70
2019-03-02T17:48:17.367Z,3.73
2019-03-02T17:51:04.079Z,3.43
2019-03-02T17:53:33.944Z,3.87
2019-03-02T17:56:19.983Z,3.40
2019-03-02T17:58:56.143Z,3.90
2019-03-02T18:01:42.615Z,3.23
2019-03-02T18:04:20.347Z,3.70
2019-03-02T18:07:06.700Z,3.80
2019-03-02T18:09:51.244Z,3.20
2019-03-02T18:12:23.394Z,3.70
2019-03-02T18:15:01.616Z,3.40
2019-03-02T18:17:31.468Z,3.60
2019-03-02T18:19:59.687Z,3.53
2019-03-02T18:22:27.813Z,3.90
2019-03-02T18:24:56.029Z,3.93
2019-03-02T18:27:24.152Z,4.07
2019-03-02T18:29:52.317Z,4.10
2019-03-02T18:32:20.546Z,4.47
2019-03-02T18:34:48.854Z,4.30
2019-03-02T18:37:17.129Z,3.80
2019-03-02T18:39:45.406Z,4.00
2019-03-02T18:42:13.685Z,3.37
2019-03-02T18:44:42.020Z,4.13
2019-03-02T18:47:10.223Z,3.57
2019-03-02T18:49:51.490Z,3.57
2019-03-02T18:52:21.354Z,3.43
2019-03-02T18:54:50.671Z,3.27
2019-03-02T18:57:19.127Z,3.80
2019-03-02T18:59:47.618Z,2.80
2019-03-02T19:02:15.969Z,3.40
2019-03-02T19:04:45.275Z,2.70
2019-03-02T19:07:13.457Z,2.77
2019-03-02T19:09:41.685Z,2.50
2019-03-02T19:12:10.027Z,2.33
2019-03-02T19:14:38.169Z,2.33
2019-03-02T19:17:06.399Z,2.43
2019-03-02T19:19:34.687Z,2.47
2019-03-02T19:22:03.172Z,2.20
2019-03-02T19:24:31.519Z,2.50
2019-03-02T19:26:59.992Z,2.13
2019-03-02T19:29:28.200Z,2.50
2019-03-02T19:31:56.430Z,2.37
2019-03-02T19:34:25.080Z,2.33
2019-03-02T19:36:53.956Z,2.43
2019-03-02T19:39:22.815Z,2.50
2019-03-02T19:41:52.185Z,2.67
2019-03-02T19:44:20.659Z,2.30
2019-03-02T19:46:50.573Z,2.40
2019-03-02T19:49:18.935Z,2.47
2019-03-02T19:51:47.232Z,2.23
2019-03-02T19:54:15.421Z,2.50
2019-03-02T19:56:43.579Z,2.50
2019-03-02T19:59:13.405Z,2.53
2019-03-02T20:01:43.266Z,2.60
2019-03-02T20:04:11.463Z,2.53
2019-03-02T20:06:39.791Z,2.80
2019-03-02T20:09:07.997Z,2.63
2019-03-02T20:11:36.216Z,3.13
2019-03-02T20:14:04.709Z,3.00
2019-03-02T20:16:33.134Z,3.50
2019-03-02T20:19:04.277Z,3.57
2019-03-02T20:21:32.512Z,3.47
2019-03-02T20:24:00.906Z,3.90
2019-03-02T20:26:29.127Z,3.40
2019-03-02T20:28:57.470Z,3.90
2019-03-02T20:31:25.712Z,4.10
2019-03-02T20:33:53.912Z,4.57
2019-03-02T20:36:24.010Z,4.63
2019-03-02T20:38:52.295Z,4.67
2019-03-02T20:41:25.164Z,4.90
2019-03-02T20:43:53.551Z,5.20
2019-03-02T20:46:21.758Z,5.40
2019-03-02T20:48:49.984Z,5.50
2019-03-02T20:51:18.194Z,5.60
2019-03-02T20:53:46.351Z,6.37
2019-03-02T20:56:14.473Z,6.83
2019-03-02T20:58:42.679Z,6.60
2019-03-02T21:01:11.188Z,6.40
2019-03-02T21:03:41.159Z,6.40
2019-03-02T21:06:09.500Z,6.60
2019-03-02T21:08:38.105Z,6.17
2019-03-02T21:11:06.339Z,6.40
2019-03-02T21:13:34.517Z,6.60
2019-03-02T21:16:02.717Z,6.73
2019-03-02T21:18:30.968Z,7.20
2019-03-02T21:21:00.040Z,6.80
2019-03-02T21:23:28.303Z,7.20
2019-03-02T21:25:56.507Z,7.23
2019-03-02T21:28:24.667Z,7.57
2019-03-02T21:30:52.783Z,6.90
2019-03-02T21:33:21.044Z,7.40
2019-03-02T21:35:49.223Z,6.93
2019-03-02T21:38:17.381Z,8.00
2019-03-02T21:40:45.586Z,7.87
2019-03-02T21:43:13.831Z,7.80
2019-03-02T21:45:42.034Z,7.70
2019-03-02T21:48:10.249Z,7.83
2019-03-02T21:50:39.712Z,7.87
2019-03-02T21:53:07.954Z,8.00
2019-03-02T21:55:36.079Z,7.63
2019-03-02T21:58:04.719Z,7.80
2019-03-02T22:00:33.035Z,7.27
2019-03-02T22:03:01.218Z,7.43
2019-03-02T22:05:29.440Z,9.03
2019-03-02T22:07:57.657Z,10.07
2019-03-02T22:10:33.166Z,7.40
2019-03-02T22:13:01.370Z,7.57
2019-03-02T22:15:29.666Z,7.80
2019-03-02T22:17:57.933Z,7.40
2019-03-02T22:20:26.163Z,7.50
2019-03-02T22:22:54.377Z,6.77
2019-03-02T22:25:23.572Z,6.83
2019-03-02T22:27:51.760Z,7.00
2019-03-02T22:30:26.724Z,6.63
2019-03-02T22:32:55.024Z,6.60
2019-03-02T22:35:23.191Z,6.50
2019-03-02T22:37:51.448Z,6.30
2019-03-02T22:40:20.383Z,6.43
2019-03-02T22:42:50.061Z,6.33
2019-03-02T22:45:18.383Z,6.20
2019-03-02T22:47:46.630Z,6.47
2019-03-02T22:50:15.936Z,5.37
2019-03-02T22:52:44.130Z,6.07
2019-03-02T22:55:13.246Z,5.97
2019-03-02T22:57:41.516Z,5.73
2019-03-02T23:00:17.308Z,6.40
2019-03-02T23:02:45.134Z,5.80
2019-03-02T23:05:13.418Z,5.60
2019-03-02T23:07:41.674Z,5.70
2019-03-02T23:10:10.306Z,6.07
2019-03-02T23:12:38.537Z,5.97
2019-03-02T23:15:08.622Z,5.67
2019-03-02T23:17:36.813Z,5.87
2019-03-02T23:20:05.838Z,5.60
2019-03-02T23:22:34.062Z,5.80
2019-03-02T23:25:02.269Z,5.70
2019-03-02T23:27:30.516Z,5.60
2019-03-02T23:29:58.638Z,5.13
2019-03-02T23:32:26.940Z,5.63
2019-03-02T23:34:55.139Z,5.00
2019-03-02T23:37:23.283Z,5.63
2019-03-02T23:39:51.422Z,5.70
2019-03-02T23:42:19.644Z,5.53
2019-03-02T23:44:47.994Z,5.47
2019-03-02T23:47:16.206Z,5.20
2019-03-02T23:49:44.331Z,5.30
2019-03-02T23:52:12.481Z,5.30
2019-03-02T23:54:40.610Z,5.50
2019-03-02T23:57:08.915Z,5.50
2019-03-02T23:59:37.319Z,5.10
